Time;durP1;ratioP1;P1;durP2;ratioP2;P2;SDS_P1;SDS_P2;PMS_P1;PMS_P2;Temp;Humidity;BMP_temperature;BMP_pressure;BME280_temperature;BME280_humidity;BME280_pressure;Samples;Min_cycle;Max_cycle;Signal;HPM_P1;HPM_P2
2022/01/16 00:00:46;;;;;;;;;;;;;;;6.06;72.51;101595.66;7363455;19;19923;-64
2022/01/16 00:05:55;;;;;;;;;;;;;;;6.11;72.51;101600.03;7363826;19;19921;-63
2022/01/16 00:08:21;;;;;;;;;;;;;;;6.15;72.12;101606.13;7359657;19;19961;-63
2022/01/16 00:10:46;;;;;;;;;;;;;;;6.18;72.17;101598.34;7362194;19;20270;-63
2022/01/16 00:13:12;;;;;;;;;;;;;;;6.23;72.47;101599.25;7362280;19;19936;-63
2022/01/16 00:15:37;;;;;;;;;;;;;;;6.28;72.53;101601.91;7359501;19;19986;-63
2022/01/16 00:18:10;;;;;;;;;;;;;;;6.32;72.61;101596.75;7359764;19;19925;-63
2022/01/16 00:20:36;;;;;;;;;;;;;;;6.38;72.32;101602.00;7364616;19;19919;-63
2022/01/16 00:23:05;;;;;;;;;;;;;;;6.41;72.45;101602.03;7360113;19;19927;-64
2022/01/16 00:25:30;;;;;;;;;;;;;;;6.46;72.43;101589.97;7361727;19;19939;-63
2022/01/16 00:27:55;;;;;;;;;;;;;;;6.50;72.17;101589.16;7362260;19;19918;-63
2022/01/16 00:30:21;;;;;;;;;;;;;;;6.56;72.36;101590.06;7360889;19;19923;-63
2022/01/16 00:32:47;;;;;;;;;;;;;;;6.60;72.80;101586.63;7358647;19;19936;-63
2022/01/16 00:35:12;;;;;;;;;;;;;;;6.64;72.54;101575.41;7364893;19;19970;-63
2022/01/16 00:37:38;;;;;;;;;;;;;;;6.69;72.60;101581.50;7362452;19;19957;-64
2022/01/16 00:40:04;;;;;;;;;;;;;;;6.74;72.37;101585.00;7361504;19;19915;-63
2022/01/16 00:42:29;;;;;;;;;;;;;;;6.77;72.07;101585.03;7360799;19;19922;-63
2022/01/16 00:44:55;;;;;;;;;;;;;;;6.82;72.48;101587.66;7364019;19;19915;-63
2022/01/16 00:47:20;;;;;;;;;;;;;;;6.84;72.21;101589.38;7362451;19;19921;-63
2022/01/16 00:49:45;;;;;;;;;;;;;;;6.88;72.18;101583.38;7361236;19;19998;-63
2022/01/16 00:52:11;;;;;;;;;;;;;;;6.93;72.21;101588.59;7352598;19;19947;-63
2022/01/16 00:54:36;;;;;;;;;;;;;;;6.95;72.42;101589.47;7362139;19;19918;-63
2022/01/16 00:57:02;;;;;;;;;;;;;;;6.99;72.15;101593.81;7371503;19;19941;-63
2022/01/16 00:59:27;;;;;;;;;;;;;;;7.01;72.36;101595.56;7368333;19;19915;-64
2022/01/16 01:01:52;;;;;;;;;;;;;;;7.03;71.98;101588.66;7371955;19;19999;-63
2022/01/16 01:04:17;;;;;;;;;;;;;;;7.07;72.13;101586.09;7364846;19;19918;-63
2022/01/16 01:06:43;;;;;;;;;;;;;;;7.09;72.54;101602.53;7366377;19;19955;-63
2022/01/16 01:09:08;;;;;;;;;;;;;;;7.10;72.27;101614.69;7367487;19;19931;-63
2022/01/16 01:11:36;;;;;;;;;;;;;;;7.12;72.23;101611.22;7367926;19;19945;-63
2022/01/16 01:16:49;;;;;;;;;;;;;;;7.16;72.28;101601.72;7370471;19;19923;-63
2022/01/16 01:19:14;;;;;;;;;;;;;;;7.18;72.36;101592.19;7268799;19;2004308;-63
2022/01/16 01:21:39;;;;;;;;;;;;;;;7.21;72.24;101597.44;7366558;19;19910;-64
2022/01/16 01:24:05;;;;;;;;;;;;;;;7.22;72.64;101588.78;7366744;19;19926;-63
2022/01/16 01:26:36;;;;;;;;;;;;;;;7.23;72.03;101575.78;7370196;19;19922;-63
2022/01/16 01:29:02;;;;;;;;;;;;;;;7.25;72.07;101605.25;7367429;19;20324;-64
2022/01/16 01:31:29;;;;;;;;;;;;;;;7.27;72.33;101593.13;7367722;19;19927;-63
2022/01/16 01:33:54;;;;;;;;;;;;;;;7.29;72.09;101574.94;7369655;19;19939;-63
2022/01/16 01:36:20;;;;;;;;;;;;;;;7.29;72.28;101574.94;7371314;19;19919;-63
2022/01/16 01:38:45;;;;;;;;;;;;;;;7.31;72.43;101572.38;7368285;19;19947;-63
2022/01/16 01:41:10;;;;;;;;;;;;;;;7.33;72.46;101587.09;7367585;19;19919;-63
2022/01/16 01:51:32;;;;;;;;;;;;;;;7.33;72.06;101594.88;7366194;19;19928;-63
2022/01/16 01:53:57;;;;;;;;;;;;;;;7.32;72.21;101585.34;7363523;19;20058;-63
2022/01/16 01:56:24;;;;;;;;;;;;;;;7.29;72.27;101539.44;7371055;19;19922;-63
2022/01/16 01:58:50;;;;;;;;;;;;;;;7.26;71.78;101481.41;7368976;19;19921;-63
2022/01/16 02:01:15;;;;;;;;;;;;;;;7.20;71.44;101461.47;7370281;19;19919;-63
2022/01/16 02:06:06;;;;;;;;;;;;;;;7.10;71.29;101510.78;7367046;19;19935;-63
2022/01/16 02:08:34;;;;;;;;;;;;;;;7.02;71.63;101534.97;7364801;19;19965;-63
2022/01/16 02:11:02;;;;;;;;;;;;;;;6.96;71.59;101563.53;7367803;19;19947;-62
2022/01/16 02:13:31;;;;;;;;;;;;;;;6.90;71.64;101586.84;7369598;19;19960;-63
2022/01/16 02:31:45;;;;;;;;;;;;;;;6.48;71.72;101613.34;7369304;19;20663;-63
2022/01/16 02:36:59;;;;;;;;;;;;;;;6.40;72.07;101640.94;7355545;19;19929;-63
2022/01/16 02:39:25;;;;;;;;;;;;;;;6.36;72.10;101649.56;7365608;19;19922;-63
2022/01/16 02:41:52;;;;;;;;;;;;;;;6.32;72.21;101632.22;7367171;19;19922;-63
2022/01/16 02:45:04;;;;;;;;;;;;;;;6.30;72.13;101652.97;7365489;19;19947;-63
2022/01/16 02:47:03;;;;;;;;;;;;;;;6.28;72.53;101652.06;7366432;19;19998;-63
2022/01/16 02:49:30;;;;;;;;;;;;;;;6.28;72.41;101646.00;7364614;19;19994;-63
2022/01/16 02:51:57;;;;;;;;;;;;;;;6.28;72.50;101643.41;7365116;19;19926;-63
2022/01/16 02:54:23;;;;;;;;;;;;;;;6.29;72.63;101664.19;7342229;19;20487;-63
2022/01/16 02:56:48;;;;;;;;;;;;;;;6.31;72.70;101651.22;7367670;19;20332;-63
2022/01/16 02:59:14;;;;;;;;;;;;;;;6.33;72.66;101660.75;7354545;19;19922;-63
2022/01/16 03:01:40;;;;;;;;;;;;;;;6.37;72.85;101646.09;7365383;19;19968;-64
2022/01/16 03:04:05;;;;;;;;;;;;;;;6.40;72.86;101652.19;7367574;19;19926;-63
2022/01/16 03:06:31;;;;;;;;;;;;;;;6.43;73.16;101644.41;7366317;19;19933;-63
2022/01/16 03:08:56;;;;;;;;;;;;;;;6.47;73.22;101628.03;7363271;19;19919;-63
2022/01/16 03:11:34;;;;;;;;;;;;;;;6.49;73.02;101631.53;7366601;19;19942;-63
2022/01/16 03:13:59;;;;;;;;;;;;;;;6.53;72.89;101639.31;7365483;19;19940;-63
2022/01/16 03:16:24;;;;;;;;;;;;;;;6.54;72.81;101648.84;7360187;19;20520;-63
2022/01/16 03:21:54;;;;;;;;;;;;;;;6.55;72.73;101645.41;7358619;19;19928;-63
2022/01/16 03:24:24;;;;;;;;;;;;;;;6.54;72.85;101641.97;7365926;19;20366;-63
2022/01/16 03:26:50;;;;;;;;;;;;;;;6.52;72.26;101650.56;7363625;19;19933;-63
2022/01/16 03:29:15;;;;;;;;;;;;;;;6.50;72.87;101648.84;7367455;19;20331;-63
2022/01/16 03:31:41;;;;;;;;;;;;;;;6.49;72.56;101657.47;7364080;19;19939;-63
2022/01/16 03:34:06;;;;;;;;;;;;;;;6.46;72.76;101660.03;7366506;19;19922;-63
2022/01/16 03:36:31;;;;;;;;;;;;;;;6.45;72.87;101658.31;7362792;19;19914;-63
2022/01/16 03:38:57;;;;;;;;;;;;;;;6.43;72.51;101662.59;7361964;19;19914;-63
2022/01/16 03:41:26;;;;;;;;;;;;;;;6.42;72.90;101647.88;7367580;19;19936;-63
2022/01/16 03:43:52;;;;;;;;;;;;;;;6.41;72.98;101638.38;7350189;19;19919;-63
2022/01/16 03:46:17;;;;;;;;;;;;;;;6.41;72.91;101638.38;7363317;19;19952;-63
2022/01/16 03:48:42;;;;;;;;;;;;;;;6.41;72.94;101633.19;7362097;19;20319;-63
2022/01/16 03:51:08;;;;;;;;;;;;;;;6.42;73.33;101639.22;7363484;19;20473;-63
2022/01/16 03:53:33;;;;;;;;;;;;;;;6.43;73.36;101636.63;7366239;19;20293;-63
2022/01/16 03:55:59;;;;;;;;;;;;;;;6.44;73.09;101643.59;7362138;19;19922;-63
2022/01/16 03:58:24;;;;;;;;;;;;;;;6.46;73.50;101646.19;7363696;19;19923;-63
2022/01/16 04:00:49;;;;;;;;;;;;;;;6.48;73.39;101647.94;7363754;19;19938;-63
2022/01/16 04:03:14;;;;;;;;;;;;;;;6.50;73.17;101651.44;7362418;19;20336;-63
2022/01/16 04:05:40;;;;;;;;;;;;;;;6.52;73.40;101658.34;7359701;19;19925;-63
2022/01/16 04:08:05;;;;;;;;;;;;;;;6.54;73.64;101667.00;7353569;19;20241;-63
2022/01/16 04:10:31;;;;;;;;;;;;;;;6.55;73.31;101661.84;7361869;19;20323;-63
2022/01/16 04:12:56;;;;;;;;;;;;;;;6.57;73.21;101664.44;7361828;19;19914;-63
2022/01/16 04:15:34;;;;;;;;;;;;;;;6.57;73.21;101667.91;7359499;19;20332;-63
2022/01/16 04:18:00;;;;;;;;;;;;;;;6.57;73.15;101659.25;7356228;19;19914;-63
2022/01/16 04:20:26;;;;;;;;;;;;;;;6.57;73.43;101667.03;7364341;19;19967;-63
2022/01/16 04:22:51;;;;;;;;;;;;;;;6.56;73.48;101662.72;7361828;19;19958;-62
2022/01/16 04:25:18;;;;;;;;;;;;;;;6.56;73.58;101673.09;7365917;19;19921;-64
2022/01/16 04:27:43;;;;;;;;;;;;;;;6.55;73.08;101663.59;7360747;19;19925;-63
2022/01/16 04:30:09;;;;;;;;;;;;;;;6.54;73.54;101661.81;7363505;19;19914;-63
2022/01/16 04:32:34;;;;;;;;;;;;;;;6.53;73.68;101660.94;7364995;19;19911;-63
2022/01/16 04:34:59;;;;;;;;;;;;;;;6.56;73.56;101667.91;7364244;19;19958;-63
2022/01/16 04:37:24;;;;;;;;;;;;;;;6.57;73.80;101669.63;7357613;19;19926;-64
2022/01/16 04:39:52;;;;;;;;;;;;;;;6.59;73.73;101673.09;7366067;19;19973;-63
2022/01/16 04:45:02;;;;;;;;;;;;;;;6.63;73.95;101659.31;7360423;19;19930;-63
2022/01/16 04:47:28;;;;;;;;;;;;;;;6.66;73.75;101680.13;7360859;19;20367;-63
2022/01/16 04:49:53;;;;;;;;;;;;;;;6.68;73.93;101668.00;7361599;19;19939;-63
2022/01/16 04:52:19;;;;;;;;;;;;;;;6.71;73.92;101673.22;7362272;19;21593;-63
2022/01/16 04:54:44;;;;;;;;;;;;;;;6.75;74.09;101680.19;7360570;19;19930;-63
2022/01/16 04:57:13;;;;;;;;;;;;;;;6.78;73.78;101675.00;7359980;19;19918;-63
2022/01/16 04:59:38;;;;;;;;;;;;;;;6.80;73.89;101675.06;7360872;19;19935;-63
2022/01/16 05:02:04;;;;;;;;;;;;;;;6.83;73.77;101672.47;7364277;19;19923;-64
2022/01/16 05:04:29;;;;;;;;;;;;;;;6.85;74.07;101675.97;7363423;19;19937;-63
2022/01/16 05:06:54;;;;;;;;;;;;;;;6.88;74.24;101675.97;7359099;19;19918;-63
2022/01/16 05:09:20;;;;;;;;;;;;;;;6.91;74.14;101671.69;7358286;19;19926;-63
2022/01/16 05:11:46;;;;;;;;;;;;;;;6.93;74.21;101676.88;7363297;19;20328;-63
2022/01/16 05:16:55;;;;;;;;;;;;;;;6.98;74.06;101673.44;7365369;19;19986;-64
2022/01/16 05:19:20;;;;;;;;;;;;;;;7.01;73.87;101668.28;7360777;19;19930;-63
2022/01/16 05:21:46;;;;;;;;;;;;;;;7.05;74.13;101678.72;7363270;19;20608;-64
2022/01/16 05:24:12;;;;;;;;;;;;;;;7.07;74.23;101667.47;7361890;19;19919;-63
2022/01/16 05:26:38;;;;;;;;;;;;;;;7.09;74.22;101670.06;7357489;19;19907;-63
2022/01/16 05:29:04;;;;;;;;;;;;;;;7.14;74.31;101678.75;7360336;19;19914;-63
2022/01/16 05:31:29;;;;;;;;;;;;;;;7.16;74.31;101677.06;7362883;19;19930;-64
2022/01/16 05:33:54;;;;;;;;;;;;;;;7.19;74.14;101669.25;7363486;19;19919;-63
2022/01/16 05:36:20;;;;;;;;;;;;;;;7.22;74.32;101671.91;7359851;19;19943;-64
2022/01/16 05:38:46;;;;;;;;;;;;;;;7.24;74.19;101678.81;7362139;19;19949;-63
2022/01/16 05:41:11;;;;;;;;;;;;;;;7.27;74.22;101676.25;7365676;19;19926;-63
2022/01/16 05:43:36;;;;;;;;;;;;;;;7.31;73.86;101677.16;7367061;19;19919;-63
2022/01/16 05:46:01;;;;;;;;;;;;;;;7.34;74.36;101692.75;7367757;19;19928;-63
2022/01/16 05:48:27;;;;;;;;;;;;;;;7.37;74.10;101700.56;7367245;19;19914;-63
2022/01/16 05:50:53;;;;;;;;;;;;;;;7.38;74.06;101702.31;7368588;19;19925;-63
2022/01/16 05:53:18;;;;;;;;;;;;;;;7.40;74.03;101695.41;7366622;19;19933;-63
2022/01/16 05:55:44;;;;;;;;;;;;;;;7.44;74.12;101699.75;7367438;19;19926;-63
2022/01/16 05:58:12;;;;;;;;;;;;;;;7.42;74.45;101701.47;7365587;19;20360;-63
2022/01/16 06:00:38;;;;;;;;;;;;;;;7.48;74.35;101696.31;7369195;19;19952;-63
2022/01/16 06:03:03;;;;;;;;;;;;;;;7.52;74.18;101702.41;7364910;19;19931;-63
2022/01/16 06:05:29;;;;;;;;;;;;;;;7.53;74.00;101707.59;7369311;19;19922;-63
2022/01/16 06:08:00;;;;;;;;;;;;;;;7.58;73.97;101722.34;7366022;19;19998;-63
2022/01/16 06:10:26;;;;;;;;;;;;;;;7.59;74.35;101729.28;7368658;19;19930;-64
2022/01/16 06:12:51;;;;;;;;;;;;;;;7.62;74.10;101737.13;7368453;19;19942;-63
2022/01/16 06:15:17;;;;;;;;;;;;;;;7.63;74.34;101757.03;7366904;19;19982;-63
2022/01/16 06:17:42;;;;;;;;;;;;;;;7.64;74.23;101754.44;7369580;19;19915;-63
2022/01/16 06:20:08;;;;;;;;;;;;;;;7.65;73.96;101755.31;7366509;19;19923;-63
2022/01/16 06:22:33;;;;;;;;;;;;;;;7.66;74.02;101763.16;7367463;19;20612;-64
2022/01/16 06:24:58;;;;;;;;;;;;;;;7.70;73.86;101764.00;7363199;19;19945;-63
2022/01/16 06:27:23;;;;;;;;;;;;;;;7.71;74.38;101770.97;7365620;19;19918;-63
2022/01/16 06:29:49;;;;;;;;;;;;;;;7.74;74.24;101770.97;7366076;19;19919;-63
2022/01/16 06:32:14;;;;;;;;;;;;;;;7.76;74.03;101783.16;7365646;19;19942;-63
2022/01/16 06:34:39;;;;;;;;;;;;;;;7.79;74.31;101790.06;7367333;19;19911;-64
2022/01/16 06:37:05;;;;;;;;;;;;;;;7.81;74.02;101798.78;7363034;19;19923;-63
2022/01/16 06:39:30;;;;;;;;;;;;;;;7.85;74.33;101805.72;7364425;19;19922;-63
2022/01/16 06:41:56;;;;;;;;;;;;;;;7.88;74.14;101815.28;7367067;19;19934;-63
2022/01/16 06:44:21;;;;;;;;;;;;;;;7.91;74.46;101816.19;7361351;19;19918;-63
2022/01/16 06:46:46;;;;;;;;;;;;;;;7.95;74.03;101827.44;7367737;19;19915;-64
2022/01/16 06:49:12;;;;;;;;;;;;;;;7.99;74.52;101824.88;7363357;19;20344;-63
2022/01/16 06:51:38;;;;;;;;;;;;;;;8.02;74.29;101830.09;7367876;19;20080;-63
2022/01/16 06:54:03;;;;;;;;;;;;;;;8.06;74.17;101833.59;7365710;19;19926;-63
2022/01/16 06:56:29;;;;;;;;;;;;;;;8.11;74.62;101839.69;7362719;19;19915;-63
2022/01/16 06:58:55;;;;;;;;;;;;;;;8.15;74.27;101845.78;7368055;19;19911;-63
2022/01/16 07:01:20;;;;;;;;;;;;;;;8.18;74.14;101851.00;7365731;19;20383;-64
2022/01/16 07:03:45;;;;;;;;;;;;;;;8.22;74.29;101864.03;7354312;19;19949;-63
2022/01/16 07:06:11;;;;;;;;;;;;;;;8.26;74.27;101865.81;7365535;19;19922;-63
2022/01/16 07:08:36;;;;;;;;;;;;;;;8.30;74.21;101871.88;7366091;19;19938;-63
2022/01/16 07:11:01;;;;;;;;;;;;;;;8.32;74.26;101881.44;7364141;19;19987;-63
2022/01/16 07:13:27;;;;;;;;;;;;;;;8.36;74.57;101887.56;7363273;19;19914;-63
2022/01/16 07:15:53;;;;;;;;;;;;;;;8.39;74.58;101903.19;7366091;19;20546;-63
2022/01/16 07:18:18;;;;;;;;;;;;;;;8.41;74.30;101900.59;7364698;19;19926;-64
2022/01/16 07:20:44;;;;;;;;;;;;;;;8.43;74.29;101915.38;7364329;19;19934;-63
2022/01/16 07:23:10;;;;;;;;;;;;;;;8.46;74.06;101915.38;7370516;19;20543;-63
2022/01/16 07:25:36;;;;;;;;;;;;;;;8.48;74.43;101918.00;7360480;19;19942;-63
2022/01/16 07:28:01;;;;;;;;;;;;;;;8.50;74.09;101932.75;7362436;19;19986;-64
2022/01/16 07:30:26;;;;;;;;;;;;;;;8.53;74.17;101943.19;7366496;19;19918;-64
2022/01/16 07:32:52;;;;;;;;;;;;;;;8.54;74.01;101957.94;7365577;19;19966;-63
2022/01/16 07:35:17;;;;;;;;;;;;;;;8.55;74.39;101959.69;7342449;19;19974;-63
2022/01/16 07:37:42;;;;;;;;;;;;;;;8.54;73.74;101955.34;7366174;19;19975;-63
2022/01/16 07:40:10;;;;;;;;;;;;;;;8.53;73.96;101957.94;7363292;19;19927;-63
2022/01/16 07:42:35;;;;;;;;;;;;;;;8.49;73.56;101967.47;7359540;19;19955;-63
2022/01/16 07:45:00;;;;;;;;;;;;;;;8.47;73.68;101990.03;7344254;19;19915;-63
2022/01/16 07:47:26;;;;;;;;;;;;;;;8.45;73.85;102002.16;7359801;19;19948;-63
2022/01/16 07:49:51;;;;;;;;;;;;;;;8.43;73.68;102003.88;7358171;19;19923;-63
2022/01/16 07:52:16;;;;;;;;;;;;;;;8.43;74.06;102001.28;7365264;19;19923;-63
2022/01/16 07:54:42;;;;;;;;;;;;;;;8.42;73.89;102007.34;7360969;19;19926;-63
2022/01/16 07:57:07;;;;;;;;;;;;;;;8.40;73.80;101992.56;7362241;19;19918;-63
2022/01/16 07:59:32;;;;;;;;;;;;;;;8.38;74.18;102005.56;7358100;19;19915;-63
2022/01/16 08:01:57;;;;;;;;;;;;;;;8.38;73.76;102016.00;7365506;19;19929;-63
2022/01/16 08:04:23;;;;;;;;;;;;;;;8.36;74.15;102017.69;7363405;19;19942;-63
2022/01/16 08:06:48;;;;;;;;;;;;;;;8.36;73.72;102030.69;7364286;19;19935;-63
2022/01/16 08:09:13;;;;;;;;;;;;;;;8.35;74.13;102033.28;7357948;19;19930;-63
2022/01/16 08:11:38;;;;;;;;;;;;;;;8.35;73.93;102030.66;7360616;19;19990;-63
2022/01/16 08:14:04;;;;;;;;;;;;;;;8.34;73.97;102029.81;7363591;19;20855;-63
2022/01/16 08:16:29;;;;;;;;;;;;;;;8.33;74.18;102025.47;7363873;19;19937;-63
2022/01/16 08:18:54;;;;;;;;;;;;;;;8.33;73.83;102028.06;7362046;19;19928;-63
2022/01/16 08:21:20;;;;;;;;;;;;;;;8.33;73.84;102033.28;7364401;19;19911;-63
2022/01/16 08:23:45;;;;;;;;;;;;;;;8.32;74.18;102048.00;7357339;19;19926;-63
2022/01/16 08:26:10;;;;;;;;;;;;;;;8.32;74.08;102040.22;7363482;19;19918;-63
2022/01/16 08:28:35;;;;;;;;;;;;;;;8.32;74.26;102041.94;7361959;19;19919;-63
2022/01/16 08:31:01;;;;;;;;;;;;;;;8.30;74.13;102049.72;7364373;19;19914;-64
2022/01/16 08:33:26;;;;;;;;;;;;;;;8.29;73.79;102067.94;7366191;19;20235;-63
2022/01/16 08:35:52;;;;;;;;;;;;;;;8.27;74.07;102080.94;7360531;19;19965;-63
2022/01/16 08:38:17;;;;;;;;;;;;;;;8.26;73.72;102088.72;7363391;19;19925;-63
2022/01/16 08:40:43;;;;;;;;;;;;;;;8.25;73.68;102089.56;7361919;19;19982;-64
2022/01/16 08:43:11;;;;;;;;;;;;;;;8.24;73.87;102099.13;7356134;19;19952;-63
2022/01/16 08:45:37;;;;;;;;;;;;;;;8.22;73.72;102111.25;7362403;19;19984;-62
2022/01/16 08:48:02;;;;;;;;;;;;;;;8.22;73.65;102118.19;7362701;19;19911;-63
2022/01/16 08:50:28;;;;;;;;;;;;;;;8.21;73.95;102127.72;7360699;19;19934;-63
2022/01/16 08:52:53;;;;;;;;;;;;;;;8.21;73.83;102132.03;7361162;19;20259;-62
2022/01/16 08:55:18;;;;;;;;;;;;;;;8.22;73.96;102141.59;7361741;19;19931;-63
2022/01/16 08:57:44;;;;;;;;;;;;;;;8.22;74.23;102141.59;7357307;19;19915;-63
2022/01/16 09:00:09;;;;;;;;;;;;;;;8.22;74.20;102139.00;7359383;19;19923;-63
2022/01/16 09:02:35;;;;;;;;;;;;;;;8.23;73.85;102157.22;7360347;19;19930;-63
2022/01/16 09:05:01;;;;;;;;;;;;;;;8.24;74.09;102158.97;7358626;19;20255;-63
2022/01/16 09:07:26;;;;;;;;;;;;;;;8.25;73.91;102167.66;7358443;19;19935;-63
2022/01/16 09:09:51;;;;;;;;;;;;;;;8.27;74.18;102168.56;7361126;19;19961;-63
2022/01/16 09:12:17;;;;;;;;;;;;;;;8.28;74.13;102175.50;7359290;19;19946;-63
2022/01/16 09:14:42;;;;;;;;;;;;;;;8.29;73.94;102188.50;7358123;19;19914;-63
2022/01/16 09:17:07;;;;;;;;;;;;;;;8.30;74.14;102192.00;7365968;19;19926;-63
2022/01/16 09:19:33;;;;;;;;;;;;;;;8.32;74.07;102193.75;7368041;19;19915;-63
2022/01/16 09:21:58;;;;;;;;;;;;;;;8.33;74.16;102190.31;7366808;19;19925;-63
2022/01/16 09:24:23;;;;;;;;;;;;;;;8.35;73.74;102199.84;7365976;19;19931;-63
2022/01/16 09:26:50;;;;;;;;;;;;;;;8.33;73.65;102211.13;7362767;19;20395;-63
2022/01/16 09:29:15;;;;;;;;;;;;;;;8.32;73.98;102216.31;7366903;19;19926;-64
2022/01/16 09:31:40;;;;;;;;;;;;;;;8.30;73.90;102215.41;7368557;19;19923;-63
2022/01/16 09:34:06;;;;;;;;;;;;;;;8.26;73.73;102229.25;7366936;19;19918;-63
2022/01/16 09:36:31;;;;;;;;;;;;;;;8.23;73.58;102247.44;7369006;19;19938;-63
2022/01/16 09:38:56;;;;;;;;;;;;;;;8.18;73.66;102256.91;7368942;19;20024;-63
2022/01/16 09:41:22;;;;;;;;;;;;;;;8.14;73.36;102265.53;7362981;19;19922;-63
2022/01/16 09:43:47;;;;;;;;;;;;;;;8.12;73.31;102262.94;7367168;19;20379;-63
2022/01/16 09:46:13;;;;;;;;;;;;;;;8.10;73.36;102269.81;7362618;19;19935;-64
2022/01/16 09:48:38;;;;;;;;;;;;;;;8.11;73.53;102270.69;7364057;19;20236;-62
2022/01/16 09:51:04;;;;;;;;;;;;;;;8.16;73.76;102266.41;7366024;19;20403;-63
2022/01/16 09:53:30;;;;;;;;;;;;;;;8.21;73.71;102277.75;7359286;19;19933;-64
2022/01/16 09:55:55;;;;;;;;;;;;;;;8.26;73.91;102291.69;7369895;19;19926;-64
2022/01/16 09:58:21;;;;;;;;;;;;;;;8.31;74.03;102303.03;7362852;19;20002;-64
2022/01/16 10:00:46;;;;;;;;;;;;;;;8.34;73.67;102303.09;7363540;19;19918;-63
2022/01/16 10:03:48;;;;;;;;;;;;;;;8.39;73.64;102297.97;7366098;19;20004;-63
2022/01/16 10:06:19;;;;;;;;;;;;;;;8.42;73.89;102293.69;7251368;19;2004161;-63
2022/01/16 10:08:45;;;;;;;;;;;;;;;8.45;73.87;102309.31;7341682;19;19923;-63
2022/01/16 10:11:19;;;;;;;;;;;;;;;8.47;73.59;102318.03;7348596;19;19934;-63
2022/01/16 10:13:56;;;;;;;;;;;;;;;8.49;73.32;102321.53;7359312;19;19922;-63
2022/01/16 10:16:29;;;;;;;;;;;;;;;8.52;73.47;102331.13;7361537;19;20332;-63
2022/01/16 10:18:55;;;;;;;;;;;;;;;8.53;73.46;102344.16;7364198;19;19938;-63
2022/01/16 10:21:31;;;;;;;;;;;;;;;8.55;73.25;102363.25;7361571;19;19910;-63
2022/01/16 10:23:56;;;;;;;;;;;;;;;8.57;73.45;102361.56;7360914;19;19930;-63
2022/01/16 10:26:22;;;;;;;;;;;;;;;8.59;73.39;102366.78;7360797;19;20323;-63
2022/01/16 10:28:48;;;;;;;;;;;;;;;8.65;73.70;102373.78;7360956;19;19914;-63
2022/01/16 10:31:18;;;;;;;;;;;;;;;8.68;73.56;102385.13;7357844;19;20320;-63
2022/01/16 10:33:43;;;;;;;;;;;;;;;8.72;73.31;102391.25;7355365;19;20576;-63
2022/01/16 10:36:09;;;;;;;;;;;;;;;8.76;73.34;102398.22;7362330;19;19923;-63
2022/01/16 10:38:34;;;;;;;;;;;;;;;8.76;73.30;102388.69;7358152;19;19918;-63
2022/01/16 10:41:00;;;;;;;;;;;;;;;8.78;73.44;102401.75;7365058;19;20635;-63
2022/01/16 10:43:38;;;;;;;;;;;;;;;8.79;73.03;102414.78;7362682;19;19934;-63
2022/01/16 10:46:04;;;;;;;;;;;;;;;8.79;73.03;102414.78;7315096;19;19939;-63
2022/01/16 10:48:29;;;;;;;;;;;;;;;8.81;73.01;102427.81;7360713;19;19968;-63
2022/01/16 10:50:55;;;;;;;;;;;;;;;8.81;72.95;102427.81;7363318;19;19923;-63
2022/01/16 10:53:25;;;;;;;;;;;;;;;8.84;73.01;102443.50;7359657;19;19923;-63
2022/01/16 10:55:58;;;;;;;;;;;;;;;8.87;73.19;102446.16;7365202;19;21368;-63
2022/01/16 10:58:24;;;;;;;;;;;;;;;8.90;72.96;102448.78;7361598;19;19919;-63
2022/01/16 11:01:05;;;;;;;;;;;;;;;8.94;73.18;102453.16;7365775;19;20016;-64
2022/01/16 11:03:38;;;;;;;;;;;;;;;8.98;73.07;102460.16;7363368;19;19925;-63
2022/01/16 11:06:04;;;;;;;;;;;;;;;9.03;72.71;102465.44;7360692;19;19915;-63
2022/01/16 11:08:29;;;;;;;;;;;;;;;9.06;72.76;102466.31;7364395;19;20023;-63
2022/01/16 11:10:59;;;;;;;;;;;;;;;9.10;72.66;102465.50;7364879;19;19914;-63
2022/01/16 11:13:32;;;;;;;;;;;;;;;9.14;72.63;102456.00;7356081;19;19934;-63
2022/01/16 11:15:59;;;;;;;;;;;;;;;9.20;72.63;102456.06;7364667;19;19918;-63
2022/01/16 11:18:25;;;;;;;;;;;;;;;9.25;72.53;102456.13;7365192;19;19922;-63
2022/01/16 11:20:56;;;;;;;;;;;;;;;9.30;72.63;102455.31;7360987;19;20491;-63
2022/01/16 11:26:00;;;;;;;;;;;;;;;9.47;72.75;102436.34;7365665;19;19930;-63
2022/01/16 11:28:26;;;;;;;;;;;;;;;9.57;72.79;102436.44;7363034;19;20696;-63
2022/01/16 11:30:55;;;;;;;;;;;;;;;9.70;72.66;102449.63;7362666;19;20340;-64
2022/01/16 11:33:22;;;;;;;;;;;;;;;9.79;72.49;102453.19;7357325;19;19914;-64
2022/01/16 11:35:50;;;;;;;;;;;;;;;9.92;72.63;102461.97;7343984;19;19918;-64
2022/01/16 11:38:18;;;;;;;;;;;;;;;10.02;72.49;102453.34;7335576;19;19914;-63
2022/01/16 11:40:47;;;;;;;;;;;;;;;10.20;72.72;102443.94;7363024;19;19918;-63
2022/01/16 11:43:16;;;;;;;;;;;;;;;10.47;72.77;102451.09;7364633;19;19930;-63
2022/01/16 11:45:51;;;;;;;;;;;;;;;10.82;72.53;102453.88;7363176;19;20451;-63
2022/01/16 11:48:33;;;;;;;;;;;;;;;11.27;73.10;102447.06;7360499;19;19928;-63
2022/01/16 11:50:59;;;;;;;;;;;;;;;11.79;73.45;102440.13;7356287;19;19922;-63
2022/01/16 11:53:43;;;;;;;;;;;;;;;12.24;72.97;102435.78;7348852;19;19923;-63
2022/01/16 11:56:28;;;;;;;;;;;;;;;12.73;72.24;102420.78;7347093;19;19915;-63
2022/01/16 11:59:11;;;;;;;;;;;;;;;13.21;71.06;102418.81;7358567;19;20536;-64
2022/01/16 12:01:46;;;;;;;;;;;;;;;13.65;71.23;102409.75;7351738;19;20465;-63
2022/01/16 12:04:32;;;;;;;;;;;;;;;14.08;70.95;102419.88;7357004;19;19937;-63
2022/01/16 12:07:12;;;;;;;;;;;;;;;14.46;69.57;102426.50;7350733;19;19914;-63
2022/01/16 12:12:15;;;;;;;;;;;;;;;15.15;68.08;102439.66;7313222;19;19934;-64
2022/01/16 12:14:59;;;;;;;;;;;;;;;15.48;67.74;102432.19;7342747;19;20022;-63
2022/01/16 12:17:44;;;;;;;;;;;;;;;15.81;67.62;102429.03;7333666;19;19922;-63
2022/01/16 12:20:17;;;;;;;;;;;;;;;16.09;66.79;102425.91;7357353;19;19934;-63
2022/01/16 12:22:42;;;;;;;;;;;;;;;16.37;66.13;102430.66;7356996;19;19946;-63
2022/01/16 12:25:18;;;;;;;;;;;;;;;16.60;66.03;102428.44;7352500;19;19922;-64
2022/01/16 12:27:52;;;;;;;;;;;;;;;16.85;66.02;102413.88;7355508;19;20383;-64
2022/01/16 12:30:38;;;;;;;;;;;;;;;17.07;65.70;102419.53;7356118;19;20558;-64
2022/01/16 12:33:09;;;;;;;;;;;;;;;17.25;64.52;102423.56;7353310;19;20468;-64
2022/01/16 12:35:55;;;;;;;;;;;;;;;17.42;65.69;102430.19;7349441;19;19939;-63
2022/01/16 12:38:26;;;;;;;;;;;;;;;17.55;64.53;102436.94;7358991;19;19942;-62
2022/01/16 12:40:58;;;;;;;;;;;;;;;17.67;63.49;102441.91;7335078;19;19919;-64
2022/01/16 12:43:31;;;;;;;;;;;;;;;17.82;63.93;102449.50;7350207;19;20651;-64
2022/01/16 12:45:57;;;;;;;;;;;;;;;17.96;63.70;102450.94;7350850;19;19927;-64
2022/01/16 12:48:22;;;;;;;;;;;;;;;18.12;64.52;102457.56;7351676;19;19953;-64
2022/01/16 12:50:48;;;;;;;;;;;;;;;18.22;64.34;102456.41;7339612;19;19918;-64
2022/01/16 12:53:13;;;;;;;;;;;;;;;18.30;63.49;102448.28;7355916;19;19935;-63
2022/01/16 12:55:39;;;;;;;;;;;;;;;18.35;63.52;102447.25;7335436;19;20614;-64
2022/01/16 12:58:17;;;;;;;;;;;;;;;18.38;63.13;102452.44;7363599;19;19907;-63
2022/01/16 13:00:58;;;;;;;;;;;;;;;18.34;62.78;102448.13;7333458;19;19919;-64
2022/01/16 13:03:26;;;;;;;;;;;;;;;18.15;61.45;102450.41;7342256;19;19922;-63
2022/01/16 13:05:52;;;;;;;;;;;;;;;17.98;62.10;102468.47;7361156;19;19926;-63
2022/01/16 13:08:17;;;;;;;;;;;;;;;17.79;61.89;102478.66;7318080;19;19919;-63
2022/01/16 13:10:42;;;;;;;;;;;;;;;17.63;62.05;102469.31;7334204;19;19956;-63
2022/01/16 13:13:11;;;;;;;;;;;;;;;17.59;62.31;102465.03;7332727;19;19926;-64
2022/01/16 13:15:36;;;;;;;;;;;;;;;17.63;62.45;102471.94;7366839;19;19915;-64
2022/01/16 13:18:08;;;;;;;;;;;;;;;17.75;63.58;102471.72;7364545;19;19944;-64
2022/01/16 13:20:33;;;;;;;;;;;;;;;17.79;62.48;102462.81;7340672;19;20055;-64
2022/01/16 13:22:59;;;;;;;;;;;;;;;18.00;63.22;102466.69;7357426;19;19993;-64
2022/01/16 13:25:24;;;;;;;;;;;;;;;18.11;62.04;102464.63;7328889;19;19923;-63
2022/01/16 13:27:50;;;;;;;;;;;;;;;18.15;60.84;102466.28;7333247;19;20594;-63
2022/01/16 13:30:28;;;;;;;;;;;;;;;18.18;61.73;102467.09;7357592;19;19914;-64
2022/01/16 13:33:04;;;;;;;;;;;;;;;18.16;60.76;102472.44;7359012;19;19911;-64